Time;durP1;ratioP1;P1;durP2;ratioP2;P2;SDS_P1;SDS_P2;PMS_P1;PMS_P2;Temp;Humidity;BMP_temperature;BMP_pressure;BME280_temperature;BME280_humidity;BME280_pressure;Samples;Min_cycle;Max_cycle;Signal;HPM_P1;HPM_P2
2022/12/10 00:01:49;;;;;;;38.67;19.55;;;;;;;1.73;76.34;97162.88;5050028;28;20423;-73
2022/12/10 00:04:15;;;;;;;37.33;19.55;;;;;;;1.72;75.94;97161.25;5050168;28;20033;-73
2022/12/10 00:06:42;;;;;;;36.05;18.10;;;;;;;1.72;76.67;97155.84;5049979;28;20151;-74
2022/12/10 00:09:11;;;;;;;30.75;18.35;;;;;;;1.70;76.62;97164.25;5049958;28;20037;-74
2022/12/10 00:11:37;;;;;;;32.20;17.25;;;;;;;1.71;76.20;97163.16;5049746;28;20067;-73
2022/12/10 00:14:02;;;;;;;32.08;17.48;;;;;;;1.72;76.83;97169.38;5048314;28;20100;-73
2022/12/10 00:16:28;;;;;;;34.22;18.88;;;;;;;1.71;76.89;97165.88;5049575;28;20029;-74
2022/12/10 00:18:54;;;;;;;29.58;17.42;;;;;;;1.70;76.40;97172.38;5049421;28;20021;-74
2022/12/10 00:21:22;;;;;;;33.03;18.40;;;;;;;1.70;76.32;97171.53;5049392;28;20024;-74
2022/12/10 00:23:48;;;;;;;32.80;17.75;;;;;;;1.71;76.58;97165.88;5047828;28;20029;-74
2022/12/10 00:26:22;;;;;;;27.52;15.77;;;;;;;1.71;76.67;97160.47;5049221;28;20074;-74
2022/12/10 00:28:49;;;;;;;28.38;16.60;;;;;;;1.73;76.77;97154.78;5049442;28;20032;-74
2022/12/10 00:31:18;;;;;;;26.02;15.45;;;;;;;1.76;76.47;97156.94;5049379;28;20029;-73
2022/12/10 00:33:44;;;;;;;27.13;15.82;;;;;;;1.75;76.48;97158.84;5048609;28;20519;-74
2022/12/10 00:36:13;;;;;;;29.95;17.42;;;;;;;1.74;76.43;97167.22;5049261;28;20035;-74
2022/12/10 00:38:38;;;;;;;28.10;15.98;;;;;;;1.71;76.77;97168.56;5046873;28;20029;-75
2022/12/10 00:41:04;;;;;;;28.70;16.45;;;;;;;1.70;76.60;97156.16;5049541;28;20398;-74
2022/12/10 00:43:29;;;;;;;27.30;15.77;;;;;;;1.71;76.43;97163.16;5048450;28;20028;-76
2022/12/10 00:45:55;;;;;;;27.60;16.27;;;;;;;1.73;76.40;97162.88;5048746;28;20032;-73
2022/12/10 00:48:21;;;;;;;25.20;15.85;;;;;;;1.75;76.39;97168.84;5048500;28;20037;-75
2022/12/10 00:51:01;;;;;;;27.23;15.13;;;;;;;1.76;76.98;97179.41;5048169;28;20055;-75
2022/12/10 00:53:28;;;;;;;24.58;14.95;;;;;;;1.79;76.80;97178.03;5048433;28;20127;-74
2022/12/10 00:55:54;;;;;;;23.70;14.65;;;;;;;1.80;76.86;97181.56;5049404;28;20021;-75
2022/12/10 00:58:20;;;;;;;24.10;14.55;;;;;;;1.81;77.02;97192.09;5048390;28;20021;-75
2022/12/10 01:00:45;;;;;;;22.42;14.05;;;;;;;1.80;76.41;97192.38;5048154;28;20641;-74
2022/12/10 01:03:11;;;;;;;23.70;14.77;;;;;;;1.78;76.92;97190.75;5049381;28;20044;-75
2022/12/10 01:05:36;;;;;;;23.77;14.70;;;;;;;1.76;76.45;97189.38;5049546;28;20357;-74
2022/12/10 01:08:02;;;;;;;22.85;14.32;;;;;;;1.76;76.51;97190.22;5048183;28;20179;-74
2022/12/10 01:10:27;;;;;;;23.58;15.02;;;;;;;1.77;76.74;97189.13;5048621;28;20044;-75
2022/12/10 01:12:52;;;;;;;21.80;14.43;;;;;;;1.78;76.98;97185.34;5049495;28;20040;-75
2022/12/10 01:15:18;;;;;;;22.17;13.70;;;;;;;1.79;77.05;97186.13;5048245;28;20060;-75
2022/12/10 01:17:43;;;;;;;23.27;14.48;;;;;;;1.79;76.64;97194.25;5048236;28;20029;-75
2022/12/10 01:20:09;;;;;;;23.33;14.48;;;;;;;1.79;77.06;97202.34;5049650;28;20104;-75
2022/12/10 01:22:34;;;;;;;23.30;14.10;;;;;;;1.79;76.51;97191.53;5049575;28;20029;-75
2022/12/10 01:25:00;;;;;;;23.05;14.40;;;;;;;1.79;76.76;97186.13;5048116;28;20037;-74
2022/12/10 01:27:26;;;;;;;22.15;13.75;;;;;;;1.77;77.00;97185.59;5049095;28;20025;-75
2022/12/10 01:29:51;;;;;;;25.77;14.45;;;;;;;1.76;77.43;97203.72;5048554;28;20061;-75
2022/12/10 01:32:17;;;;;;;21.77;13.43;;;;;;;1.75;76.24;97198.56;5049531;28;20045;-75
2022/12/10 01:34:42;;;;;;;21.08;13.63;;;;;;;1.73;76.80;97206.97;5049358;28;20119;-74
2022/12/10 01:37:07;;;;;;;23.00;13.85;;;;;;;1.72;76.92;97208.03;5049139;28;20470;-75
2022/12/10 01:39:33;;;;;;;22.30;13.82;;;;;;;1.73;76.71;97212.38;5046403;28;20067;-75
2022/12/10 01:42:00;;;;;;;21.50;13.20;;;;;;;1.75;76.86;97202.09;5048706;28;20104;-75
2022/12/10 01:44:25;;;;;;;23.02;14.15;;;;;;;1.76;76.40;97202.91;5049121;28;20031;-75
2022/12/10 01:46:53;;;;;;;22.23;13.75;;;;;;;1.79;77.20;97202.34;5049421;28;20025;-75
2022/12/10 01:49:26;;;;;;;23.35;14.35;;;;;;;1.81;76.86;97207.50;5048832;28;20041;-75
2022/12/10 01:51:54;;;;;;;22.65;13.60;;;;;;;1.83;77.19;97206.16;5048612;28;20550;-75
2022/12/10 01:54:33;;;;;;;25.60;14.50;;;;;;;1.84;76.63;97206.94;5048838;28;20049;-75
2022/12/10 01:57:02;;;;;;;21.17;12.82;;;;;;;1.84;77.14;97215.88;5048924;28;20036;-75
2022/12/10 01:59:28;;;;;;;22.88;13.27;;;;;;;1.82;76.85;97225.34;5048763;28;20117;-75
2022/12/10 02:02:03;;;;;;;21.10;13.32;;;;;;;1.79;77.16;97229.41;5049203;28;20025;-75
2022/12/10 02:04:55;;;;;;;20.33;13.23;;;;;;;1.77;77.13;97237.78;5049481;28;20104;-76
2022/12/10 02:07:29;;;;;;;20.33;12.38;;;;;;;1.77;76.45;97234.25;5049158;28;20068;-75
2022/12/10 02:10:32;;;;;;;18.30;11.35;;;;;;;1.74;76.46;97234.78;5048282;28;20556;-76
2022/12/10 02:13:07;;;;;;;20.35;12.40;;;;;;;1.74;76.43;97232.91;5049177;28;20091;-75
2022/12/10 02:15:39;;;;;;;22.90;14.05;;;;;;;1.76;77.27;97238.88;5050193;28;20111;-75
2022/12/10 02:18:12;;;;;;;23.38;13.93;;;;;;;1.77;77.36;97234.25;5049627;28;20625;-75
2022/12/10 02:20:43;;;;;;;18.52;12.85;;;;;;;1.80;77.23;97224.81;5048069;28;20024;-75
2022/12/10 02:23:21;;;;;;;20.58;13.70;;;;;;;1.80;76.87;97219.41;5046934;28;20119;-75
2022/12/10 02:26:08;;;;;;;20.98;12.95;;;;;;;1.82;76.67;97215.34;5051605;28;20116;-73
2022/12/10 02:28:48;;;;;;;22.13;14.30;;;;;;;1.79;76.60;97215.88;5053941;28;20039;-75
2022/12/10 02:31:17;;;;;;;21.20;12.88;;;;;;;1.80;76.96;97219.41;5049624;28;20040;-74
2022/12/10 02:33:50;;;;;;;20.88;13.63;;;;;;;1.78;76.68;97209.69;5049640;28;20021;-74
2022/12/10 02:36:16;;;;;;;21.48;13.65;;;;;;;1.80;77.22;97203.97;5052194;28;20544;-75
2022/12/10 02:38:44;;;;;;;20.70;12.82;;;;;;;1.79;77.21;97215.88;5052219;28;20422;-74
2022/12/10 02:41:18;;;;;;;18.50;13.15;;;;;;;1.78;76.34;97212.38;5048071;28;20021;-76
2022/12/10 02:43:47;;;;;;;16.98;12.13;;;;;;;1.80;76.89;97208.59;5049340;28;20069;-75
2022/12/10 02:46:13;;;;;;;18.25;12.43;;;;;;;1.83;76.87;97216.16;5051363;28;20029;-74
2022/12/10 02:48:40;;;;;;;19.33;12.20;;;;;;;1.84;77.44;97215.88;5052981;28;20044;-75
2022/12/10 02:51:05;;;;;;;18.67;12.55;;;;;;;1.83;76.47;97216.16;5051386;28;20029;-74
2022/12/10 02:53:31;;;;;;;20.00;12.35;;;;;;;1.80;76.71;97222.13;5050002;28;20120;-74
2022/12/10 02:56:08;;;;;;;18.30;11.95;;;;;;;1.83;77.44;97232.38;5051651;28;20021;-75
2022/12/10 02:58:51;;;;;;;18.20;12.30;;;;;;;1.84;76.81;97237.50;5050877;28;20032;-75
2022/12/10 03:01:27;;;;;;;19.48;12.43;;;;;;;1.86;77.14;97240.75;5048566;28;20120;-75
2022/12/10 03:04:00;;;;;;;20.20;12.35;;;;;;;1.87;76.54;97238.84;5051237;28;20083;-74
2022/12/10 03:06:45;;;;;;;20.10;12.55;;;;;;;1.87;77.18;97246.97;5050029;28;20036;-76
2022/12/10 03:09:22;;;;;;;18.83;12.32;;;;;;;1.84;77.40;97253.72;5050682;28;20025;-76
2022/12/10 03:11:55;;;;;;;19.77;12.32;;;;;;;1.83;76.63;97244.00;5048571;28;20379;-75
2022/12/10 03:14:27;;;;;;;20.60;13.13;;;;;;;1.85;77.20;97241.00;5050340;28;20409;-76
2022/12/10 03:16:58;;;;;;;20.90;12.85;;;;;;;1.88;77.17;97245.88;5050633;28;20028;-76
2022/12/10 03:19:29;;;;;;;20.23;13.70;;;;;;;1.87;77.30;97246.97;5050745;28;20029;-76
2022/12/10 03:21:56;;;;;;;20.23;12.90;;;;;;;1.87;76.49;97246.97;5049916;28;20458;-76
2022/12/10 03:24:22;;;;;;;23.02;13.80;;;;;;;1.87;76.38;97249.66;5051631;28;20028;-76
2022/12/10 03:26:49;;;;;;;21.75;13.73;;;;;;;1.87;77.15;97249.66;5051254;28;20016;-76
2022/12/10 03:29:20;;;;;;;23.25;14.02;;;;;;;1.88;76.84;97262.09;5050482;28;20036;-76
2022/12/10 03:31:46;;;;;;;22.48;13.82;;;;;;;1.87;77.00;97260.47;5049341;28;20041;-76
2022/12/10 03:34:13;;;;;;;21.63;13.52;;;;;;;1.85;76.79;97265.34;5050541;28;20509;-76
2022/12/10 03:36:40;;;;;;;19.42;12.38;;;;;;;1.82;77.22;97271.31;5049520;28;20484;-76
2022/12/10 03:39:06;;;;;;;23.23;14.02;;;;;;;1.80;76.84;97258.06;5050382;28;20025;-75
2022/12/10 03:41:31;;;;;;;22.88;13.85;;;;;;;1.78;76.81;97258.34;5050744;28;20351;-76
2022/12/10 03:43:58;;;;;;;20.42;13.85;;;;;;;1.78;77.32;97260.22;5050026;28;20056;-76
2022/12/10 03:46:26;;;;;;;21.30;13.55;;;;;;;1.82;77.50;97261.31;5049244;28;20032;-76
2022/12/10 03:48:52;;;;;;;24.60;14.43;;;;;;;1.86;77.11;97253.44;5050378;28;20473;-76
2022/12/10 03:51:18;;;;;;;33.42;17.92;;;;;;;1.86;76.80;97250.75;5050695;28;20029;-76
2022/12/10 03:53:44;;;;;;;25.80;14.55;;;;;;;1.84;77.18;97252.91;5048626;28;20037;-76
2022/12/10 03:56:09;;;;;;;23.60;14.48;;;;;;;1.83;77.37;97248.63;5050390;28;20036;-76
2022/12/10 03:58:35;;;;;;;23.48;14.90;;;;;;;1.83;76.86;97254.03;5048857;28;20017;-76
2022/12/10 04:01:01;;;;;;;24.42;14.32;;;;;;;1.80;76.81;97259.97;5048276;28;20104;-76
2022/12/10 04:03:26;;;;;;;23.50;13.10;;;;;;;1.80;77.11;97257.25;5048184;28;20509;-76
2022/12/10 04:05:52;;;;;;;22.60;13.45;;;;;;;1.80;77.21;97262.66;5048279;28;20021;-75
2022/12/10 04:08:17;;;;;;;23.50;14.25;;;;;;;1.76;76.94;97260.50;5049655;28;20112;-76
2022/12/10 04:10:42;;;;;;;29.75;16.13;;;;;;;1.75;76.69;97261.56;5048158;28;20151;-75
2022/12/10 04:18:36;;;;;;;24.33;14.68;;;;;;;1.68;76.54;97279.94;5048851;28;20040;-76
2022/12/10 04:29:13;;;;;;;20.42;12.93;;;;;;;1.71;77.02;97314.53;5049140;28;20098;-76
2022/12/10 04:31:38;;;;;;;21.88;13.48;;;;;;;1.74;77.38;97318.59;5049359;28;20032;-75
2022/12/10 04:34:04;;;;;;;20.95;13.93;;;;;;;1.76;77.48;97329.94;5048389;28;20025;-75
2022/12/10 04:36:29;;;;;;;23.77;13.77;;;;;;;1.77;77.07;97324.28;5049715;28;20098;-75
2022/12/10 04:38:54;;;;;;;23.13;14.07;;;;;;;1.78;76.82;97325.91;5048786;28;20021;-76
2022/12/10 04:41:20;;;;;;;22.48;14.02;;;;;;;1.81;76.93;97326.47;5049051;28;20028;-76
2022/12/10 04:43:45;;;;;;;23.20;14.82;;;;;;;1.82;77.27;97326.19;5048026;28;20048;-76
2022/12/10 04:46:11;;;;;;;20.95;13.50;;;;;;;1.84;77.25;97328.59;5049146;28;20069;-76
2022/12/10 04:48:37;;;;;;;21.98;14.07;;;;;;;1.87;77.04;97326.19;5049119;28;20029;-76
2022/12/10 04:51:02;;;;;;;21.33;14.02;;;;;;;1.91;77.22;97331.88;5047403;28;20025;-76
2022/12/10 04:53:28;;;;;;;23.08;14.93;;;;;;;1.92;76.73;97336.19;5048860;28;20048;-76
2022/12/10 04:55:53;;;;;;;23.38;14.35;;;;;;;1.88;77.09;97324.28;5048414;28;20083;-76
2022/12/10 04:58:18;;;;;;;28.40;16.73;;;;;;;1.89;77.03;97320.50;5049399;28;20039;-76
2022/12/10 05:00:44;;;;;;;31.23;18.30;;;;;;;1.88;77.62;97319.72;5049271;28;20365;-75
2022/12/10 05:03:09;;;;;;;34.20;20.23;;;;;;;1.90;77.33;97330.25;5047753;28;20714;-75
2022/12/10 05:05:35;;;;;;;41.00;22.45;;;;;;;1.91;77.19;97331.88;5048253;28;20021;-76
2022/12/10 05:08:01;;;;;;;42.85;23.02;;;;;;;1.92;76.68;97337.03;5048576;28;20044;-76
2022/12/10 05:10:26;;;;;;;33.95;20.35;;;;;;;1.93;77.29;97337.81;5048360;28;20060;-76
2022/12/10 05:12:52;;;;;;;34.22;19.25;;;;;;;1.93;76.74;97332.41;5048899;28;20079;-76
2022/12/10 05:15:17;;;;;;;30.38;18.15;;;;;;;1.90;76.62;97322.97;5048941;28;20025;-76
2022/12/10 05:17:43;;;;;;;31.60;18.70;;;;;;;1.92;76.83;97325.38;5048695;28;20032;-76
2022/12/10 05:20:09;;;;;;;26.60;16.55;;;;;;;1.90;76.66;97322.13;5048997;28;20100;-76
2022/12/10 05:25:18;;;;;;;26.73;15.38;;;;;;;1.93;77.16;97330.53;5049564;28;20051;-75
2022/12/10 05:27:44;;;;;;;27.27;16.60;;;;;;;1.95;77.45;97332.97;5048760;28;20532;-76
2022/12/10 05:30:10;;;;;;;31.40;17.98;;;;;;;1.98;76.99;97331.63;5048737;28;20040;-76
2022/12/10 05:32:36;;;;;;;29.33;18.90;;;;;;;1.96;76.90;97326.47;5048878;28;20025;-75
2022/12/10 05:35:02;;;;;;;30.98;17.98;;;;;;;1.96;77.46;97323.78;5048721;28;20028;-76
2022/12/10 05:37:28;;;;;;;32.90;18.70;;;;;;;1.98;76.82;97340.53;5048093;28;20462;-75
2022/12/10 05:39:54;;;;;;;39.92;20.08;;;;;;;1.98;77.19;97345.94;5048426;28;20044;-76
2022/12/10 05:42:19;;;;;;;41.83;22.52;;;;;;;1.98;77.11;97340.53;5049416;28;20090;-76
2022/12/10 05:44:45;;;;;;;38.67;20.42;;;;;;;1.98;76.65;97328.94;5048655;28;20021;-76
2022/12/10 05:47:10;;;;;;;34.10;18.50;;;;;;;1.96;76.96;97310.25;5047859;28;20603;-76
2022/12/10 05:49:37;;;;;;;43.25;21.85;;;;;;;1.91;76.60;97312.94;5047055;28;20369;-76
2022/12/10 05:52:02;;;;;;;43.60;22.13;;;;;;;1.90;76.74;97301.34;5048404;28;20465;-75
2022/12/10 05:54:27;;;;;;;36.15;19.35;;;;;;;1.89;76.99;97305.13;5047818;28;20048;-75
2022/12/10 05:56:53;;;;;;;34.55;17.58;;;;;;;1.88;76.46;97283.72;5051870;28;20464;-75
2022/12/10 05:59:19;;;;;;;40.28;21.27;;;;;;;1.85;76.54;97293.22;5052186;28;20079;-76
2022/12/10 06:01:45;;;;;;;36.17;20.52;;;;;;;1.84;76.62;97296.16;5052063;28;20453;-75
2022/12/10 06:04:11;;;;;;;35.70;20.17;;;;;;;1.85;77.27;97308.59;5052101;28;20021;-75
2022/12/10 06:06:38;;;;;;;34.13;17.70;;;;;;;1.87;76.49;97323.50;5051826;28;20059;-75
2022/12/10 06:09:04;;;;;;;36.15;18.13;;;;;;;1.87;76.76;97322.66;5051659;28;20561;-76
2022/12/10 06:11:30;;;;;;;50.80;22.00;;;;;;;1.88;77.16;97329.69;5052186;28;20040;-75
2022/12/10 06:13:57;;;;;;;34.10;17.75;;;;;;;1.86;77.27;97335.38;5052002;28;20056;-75
2022/12/10 06:16:24;;;;;;;30.15;17.15;;;;;;;1.88;76.87;97344.06;5050816;28;20535;-75
2022/12/10 06:18:49;;;;;;;36.78;18.25;;;;;;;1.90;76.73;97351.88;5051087;28;20021;-76
2022/12/10 06:21:16;;;;;;;41.60;19.00;;;;;;;1.90;77.43;97360.00;5051917;28;20036;-75
2022/12/10 06:23:42;;;;;;;40.13;18.65;;;;;;;1.90;76.60;97355.41;5051817;28;20371;-76
2022/12/10 06:26:13;;;;;;;42.83;20.10;;;;;;;1.91;77.24;97361.63;5051712;28;20045;-75
2022/12/10 06:28:39;;;;;;;44.92;20.05;;;;;;;1.93;76.60;97376.50;5050789;28;20091;-75
2022/12/10 06:31:06;;;;;;;44.35;19.73;;;;;;;1.94;77.30;97380.00;5050490;28;20112;-75
2022/12/10 06:33:31;;;;;;;42.30;18.88;;;;;;;1.94;76.63;97385.41;5052094;28;20020;-76
2022/12/10 06:35:56;;;;;;;38.67;17.92;;;;;;;1.91;77.14;97385.94;5051600;28;20096;-75
2022/12/10 06:38:22;;;;;;;38.20;18.20;;;;;;;1.94;77.12;97382.72;5050900;28;20063;-75
2022/12/10 06:40:49;;;;;;;34.15;16.77;;;;;;;1.95;77.10;97388.97;5051724;28;20029;-75
2022/12/10 06:43:14;;;;;;;40.83;19.70;;;;;;;1.96;77.01;97390.59;5052155;28;20028;-75
2022/12/10 06:45:40;;;;;;;35.28;18.27;;;;;;;2.00;77.00;97386.28;5050390;28;20051;-76
2022/12/10 06:48:06;;;;;;;40.83;19.08;;;;;;;2.02;76.83;97382.19;5050831;28;20722;-75
2022/12/10 06:50:32;;;;;;;33.92;18.50;;;;;;;2.02;77.29;97390.31;5051740;28;20021;-75
2022/12/10 06:52:57;;;;;;;30.80;16.75;;;;;;;2.02;77.12;97389.53;5051240;28;20040;-75
2022/12/10 06:55:22;;;;;;;31.83;17.70;;;;;;;2.03;77.28;97400.06;5051154;28;20025;-75
2022/12/10 06:57:57;;;;;;;32.13;17.88;;;;;;;2.00;76.99;97402.50;5050747;28;20052;-75
2022/12/10 07:00:22;;;;;;;33.42;18.33;;;;;;;2.02;77.19;97389.53;5050979;28;20495;-75
2022/12/10 07:02:48;;;;;;;38.33;19.70;;;;;;;1.99;77.10;97388.16;5050919;28;20033;-75
2022/12/10 07:05:14;;;;;;;37.97;19.60;;;;;;;1.98;77.02;97391.94;5051270;28;20039;-75
2022/12/10 07:07:39;;;;;;;37.80;18.73;;;;;;;1.97;76.57;97395.72;5050433;28;20028;-75
2022/12/10 07:10:06;;;;;;;33.88;18.75;;;;;;;2.00;77.03;97397.88;5050255;28;20064;-75
2022/12/10 07:12:31;;;;;;;45.50;22.70;;;;;;;2.00;76.65;97407.91;5051290;28;20083;-75
2022/12/10 07:14:57;;;;;;;38.90;20.38;;;;;;;2.02;76.84;97405.75;5050026;28;20029;-75
2022/12/10 07:17:22;;;;;;;40.88;22.55;;;;;;;2.04;77.28;97412.50;5051127;28;20044;-73
2022/12/10 07:19:47;;;;;;;41.28;22.65;;;;;;;2.05;76.90;97418.72;5050193;28;20035;-73
2022/12/10 07:22:13;;;;;;;41.95;22.30;;;;;;;2.08;77.30;97415.47;5051235;28;20044;-72
2022/12/10 07:24:38;;;;;;;34.90;19.08;;;;;;;2.11;76.59;97416.84;5050842;28;20037;-72
2022/12/10 07:27:07;;;;;;;35.85;20.00;;;;;;;2.11;76.70;97425.75;5050619;28;20071;-72
2022/12/10 07:29:33;;;;;;;36.00;20.15;;;;;;;2.15;76.82;97420.66;5049644;28;20029;-73
2022/12/10 07:31:59;;;;;;;34.22;19.25;;;;;;;2.16;76.61;97414.97;5046789;28;20027;-73
2022/12/10 07:34:25;;;;;;;30.15;16.88;;;;;;;2.18;77.00;97418.22;5048039;28;20045;-73
2022/12/10 07:36:50;;;;;;;27.02;15.57;;;;;;;2.18;77.18;97415.50;5049439;28;20114;-74
2022/12/10 07:39:19;;;;;;;28.05;16.00;;;;;;;2.19;76.57;97427.94;5048913;28;20036;-74
2022/12/10 07:41:52;;;;;;;31.77;16.92;;;;;;;2.20;77.14;97426.88;5047418;28;20086;-74
2022/12/10 07:44:22;;;;;;;31.20;17.20;;;;;;;2.21;76.70;97427.69;5047834;28;20025;-74
2022/12/10 07:46:49;;;;;;;31.15;17.10;;;;;;;2.20;76.87;97423.38;5048602;28;20064;-74
2022/12/10 07:49:16;;;;;;;34.05;17.30;;;;;;;2.17;76.98;97416.59;5047003;28;20064;-74
2022/12/10 07:51:48;;;;;;;30.52;16.27;;;;;;;2.18;76.92;97422.81;5048272;28;20028;-74
2022/12/10 07:54:14;;;;;;;33.13;18.50;;;;;;;2.18;76.74;97426.31;5047090;28;20161;-74
2022/12/10 07:56:40;;;;;;;34.35;16.60;;;;;;;2.16;76.36;97417.66;5048385;28;20518;-74
2022/12/10 07:59:06;;;;;;;33.50;18.27;;;;;;;2.15;76.67;97421.44;5049654;28;20025;-74
2022/12/10 08:01:32;;;;;;;38.70;20.20;;;;;;;2.16;76.99;97424.97;5049729;28;20029;-74
2022/12/10 08:03:57;;;;;;;41.00;20.38;;;;;;;2.15;76.21;97417.94;5049298;28;20035;-74
2022/12/10 08:06:24;;;;;;;38.65;19.88;;;;;;;2.15;76.26;97399.81;5048299;28;20021;-74
2022/12/10 08:08:50;;;;;;;36.10;18.58;;;;;;;2.12;76.96;97400.34;5048723;28;20083;-75
2022/12/10 08:11:16;;;;;;;32.03;17.08;;;;;;;2.13;76.24;97401.97;5048688;28;20481;-73
2022/12/10 08:13:43;;;;;;;31.92;17.65;;;;;;;2.13;76.61;97399.25;5049304;28;20036;-73
2022/12/10 08:16:13;;;;;;;34.03;18.25;;;;;;;2.13;76.05;97387.66;5048839;28;20473;-74
2022/12/10 08:18:38;;;;;;;;;;;;;;;2.14;76.24;97398.19;5048775;28;20024;-74
2022/12/10 08:21:10;;;;;;;36.65;18.55;;;;;;;2.15;76.70;97401.72;5045743;28;19917;-73
2022/12/10 08:23:36;;;;;;;34.33;18.30;;;;;;;2.13;77.01;97401.16;5048143;28;20470;-74
2022/12/10 08:26:06;;;;;;;35.75;19.30;;;;;;;2.10;76.99;97407.91;5049436;28;20078;-74
2022/12/10 08:28:31;;;;;;;38.88;21.48;;;;;;;2.11;76.72;97420.34;5045205;28;20485;-74
2022/12/10 08:30:57;;;;;;;48.13;27.63;;;;;;;2.14;76.65;97429.84;5049305;28;20104;-72
2022/12/10 08:33:22;;;;;;;85.38;39.42;;;;;;;2.15;76.68;97432.28;5051420;28;20059;-73
2022/12/10 08:35:47;;;;;;;68.32;33.40;;;;;;;2.16;76.66;97424.97;5051002;28;20029;-72
2022/12/10 08:38:13;;;;;;;51.97;24.15;;;;;;;2.13;76.46;97434.44;5044429;28;20029;-74
2022/12/10 08:40:40;;;;;;;51.10;24.23;;;;;;;2.08;76.17;97447.94;5045640;28;20542;-73
2022/12/10 08:43:05;;;;;;;46.08;23.40;;;;;;;2.04;76.76;97434.13;5045115;28;20448;-73
2022/12/10 08:45:31;;;;;;;49.33;25.73;;;;;;;2.05;76.22;97433.06;5046370;28;20061;-72
2022/12/10 08:47:56;;;;;;;47.83;24.20;;;;;;;2.07;76.98;97439.03;5048144;28;20018;-73
2022/12/10 08:50:21;;;;;;;46.70;22.75;;;;;;;2.07;76.23;97432.78;5049736;28;20107;-73
2022/12/10 08:52:47;;;;;;;50.95;24.95;;;;;;;2.09;77.19;97433.31;5050059;28;20032;-73
2022/12/10 08:55:12;;;;;;;34.95;17.98;;;;;;;2.12;76.91;97440.13;5049942;28;20159;-73
2022/12/10 08:57:38;;;;;;;36.15;18.23;;;;;;;2.14;76.67;97440.66;5048814;28;20029;-72
2022/12/10 09:00:04;;;;;;;39.50;19.77;;;;;;;2.15;76.44;97436.88;5048851;28;20037;-73
2022/12/10 09:02:29;;;;;;;37.50;17.80;;;;;;;2.14;77.00;97433.34;5048378;28;20017;-73
2022/12/10 09:04:55;;;;;;;35.58;18.52;;;;;;;2.16;76.23;97424.97;5046086;28;20040;-73
2022/12/10 09:07:21;;;;;;;42.70;21.15;;;;;;;2.16;76.99;97425.78;5048189;28;20057;-73
2022/12/10 09:09:46;;;;;;;39.95;20.52;;;;;;;2.15;76.19;97423.34;5047294;28;20477;-73
2022/12/10 09:12:12;;;;;;;40.55;21.17;;;;;;;2.13;76.96;97428.22;5048375;28;20029;-73
2022/12/10 09:14:38;;;;;;;46.25;22.17;;;;;;;2.12;76.95;97435.50;5048780;28;20524;-73
2022/12/10 09:17:04;;;;;;;48.33;25.27;;;;;;;2.13;76.63;97422.81;5046566;28;20036;-73
2022/12/10 09:19:29;;;;;;;48.22;23.38;;;;;;;2.13;76.44;97417.41;5048346;28;20040;-74
2022/12/10 09:21:55;;;;;;;45.72;21.27;;;;;;;2.14;76.53;97413.63;5049204;28;20025;-73
2022/12/10 09:24:20;;;;;;;40.22;19.13;;;;;;;2.14;76.12;97402.78;5049432;28;20388;-73
2022/12/10 09:26:46;;;;;;;39.33;20.08;;;;;;;2.12;76.87;97403.03;5047495;28;20029;-71
2022/12/10 09:29:12;;;;;;;41.90;19.08;;;;;;;2.10;76.75;97397.09;5048408;28;20099;-72
2022/12/10 09:31:38;;;;;;;41.58;19.98;;;;;;;2.10;76.63;97396.28;5050998;28;20497;-72
2022/12/10 09:34:04;;;;;;;41.80;20.27;;;;;;;2.09;76.15;97400.88;5052419;28;20067;-71
2022/12/10 09:36:29;;;;;;;40.47;19.35;;;;;;;2.07;76.27;97398.44;5050918;28;20091;-71
2022/12/10 09:38:55;;;;;;;41.08;19.40;;;;;;;2.08;76.26;97400.06;5052355;28;20033;-72
2022/12/10 09:41:32;;;;;;;40.40;19.75;;;;;;;2.11;76.72;97400.63;5053484;28;20035;-73
2022/12/10 09:44:22;;;;;;;40.38;20.30;;;;;;;2.09;76.85;97398.16;5051854;28;20029;-72
2022/12/10 09:46:52;;;;;;;40.85;19.67;;;;;;;2.09;76.81;97400.88;5047571;28;20040;-72
2022/12/10 09:49:53;;;;;;;40.00;19.00;;;;;;;2.10;76.80;97396.28;5049739;28;20029;-73
2022/12/10 09:52:21;;;;;;;37.13;18.35;;;;;;;2.12;77.00;97396.84;5031407;28;20492;-72
2022/12/10 09:54:55;;;;;;;39.75;18.40;;;;;;;2.15;76.99;97399.00;5053260;28;20049;-72
2022/12/10 09:57:27;;;;;;;39.10;19.60;;;;;;;2.18;76.96;97406.59;5052260;28;20037;-73
2022/12/10 09:59:55;;;;;;;46.45;23.60;;;;;;;2.20;76.79;97399.81;5050064;28;20092;-72
2022/12/10 10:02:31;;;;;;;42.92;20.35;;;;;;;2.23;76.58;97399.28;5053827;28;20035;-72
2022/12/10 10:05:06;;;;;;;43.90;23.88;;;;;;;2.28;76.17;97394.97;5051244;28;20033;-72
2022/12/10 10:07:34;;;;;;;45.28;22.27;;;;;;;2.29;76.36;97393.88;5052422;28;20086;-71
2022/12/10 10:10:04;;;;;;;44.90;23.77;;;;;;;2.31;76.93;97397.13;5050580;28;20504;-72
2022/12/10 10:12:31;;;;;;;;;;;;;;;2.33;76.27;97397.69;5051432;28;20041;-72
2022/12/10 10:14:57;;;;;;;42.03;20.10;;;;;;;2.33;76.69;97420.13;5052621;28;19927;-73
2022/12/10 10:17:35;;;;;;;42.60;20.85;;;;;;;2.33;76.82;97422.84;5053335;28;20037;-72
2022/12/10 10:20:00;;;;;;;41.70;19.73;;;;;;;2.32;76.92;97421.22;5053080;28;20037;-73
2022/12/10 10:22:26;;;;;;;47.63;21.95;;;;;;;2.32;76.38;97415.81;5056343;28;20445;-72
2022/12/10 10:24:52;;;;;;;47.15;23.10;;;;;;;2.35;76.15;97415.25;5052518;28;20477;-73
2022/12/10 10:27:23;;;;;;;44.75;20.27;;;;;;;2.36;76.09;97413.38;5053325;28;20036;-73
2022/12/10 10:29:51;;;;;;;46.60;19.45;;;;;;;2.34;76.84;97407.44;5052784;28;20033;-72
2022/12/10 10:32:28;;;;;;;42.17;18.98;;;;;;;2.31;76.20;97413.38;5053402;28;20044;-73
2022/12/10 10:34:57;;;;;;;44.53;20.08;;;;;;;2.32;75.86;97410.38;5051935;28;20428;-74
2022/12/10 10:37:29;;;;;;;42.58;19.60;;;;;;;2.33;76.15;97387.66;5053323;28;20075;-73
2022/12/10 10:39:55;;;;;;;45.83;21.77;;;;;;;2.34;76.29;97389.28;5051531;28;20021;-74
2022/12/10 10:42:27;;;;;;;50.70;23.00;;;;;;;2.33;76.05;97384.94;5054351;28;20021;-72
2022/12/10 10:44:52;;;;;;;61.80;23.98;;;;;;;2.34;76.00;97404.72;5051038;28;20079;-72
2022/12/10 10:47:33;;;;;;;63.53;25.52;;;;;;;2.31;76.15;97406.06;5049897;28;20029;-73
2022/12/10 10:49:59;;;;;;;60.20;25.98;;;;;;;2.31;76.52;97406.06;5046721;28;20366;-73
2022/12/10 10:52:29;;;;;;;51.63;22.17;;;;;;;2.30;76.69;97404.44;5050163;28;20493;-73
2022/12/10 10:54:55;;;;;;;67.72;29.58;;;;;;;2.27;76.53;97396.84;5050497;28;20045;-74
2022/12/10 10:57:35;;;;;;;144.85;60.15;;;;;;;2.25;76.01;97395.50;5050792;28;20043;-74
2022/12/10 11:00:17;;;;;;;98.85;41.20;;;;;;;2.27;76.41;97404.16;5048433;28;20126;-74
2022/12/10 11:02:42;;;;;;;76.53;31.58;;;;;;;2.28;75.88;97411.19;5050850;28;20099;-73
2022/12/10 11:05:19;;;;;;;121.47;53.30;;;;;;;2.29;76.43;97402.81;5051235;28;20029;-73
2022/12/10 11:07:44;;;;;;;138.25;59.83;;;;;;;2.30;76.83;97406.34;5049024;28;20028;-73
2022/12/10 11:10:21;;;;;;;75.93;33.70;;;;;;;2.28;76.64;97403.09;5051552;28;20507;-74
2022/12/10 11:13:18;;;;;;;81.30;34.42;;;;;;;2.28;76.76;97395.75;5049529;28;20155;-72
2022/12/10 11:15:44;;;;;;;69.45;29.90;;;;;;;2.31;76.07;97397.13;5051569;28;20027;-72
2022/12/10 11:18:31;;;;;;;60.28;25.90;;;;;;;2.33;76.58;97400.38;5050977;28;20112;-73
2022/12/10 11:21:14;;;;;;;80.43;30.75;;;;;;;2.35;75.92;97395.53;5051095;28;20051;-72
2022/12/10 11:23:41;;;;;;;59.80;25.30;;;;;;;2.34;75.87;97397.41;5051693;28;20082;-72
2022/12/10 11:26:29;;;;;;;55.15;23.55;;;;;;;2.36;75.94;97402.56;5050044;28;20040;-73
2022/12/10 11:28:59;;;;;;;65.68;27.08;;;;;;;2.35;76.54;97390.13;5046385;28;20067;-75
2022/12/10 11:31:32;;;;;;;;;;;;;;;2.36;76.62;97383.63;5050529;28;20155;-75
2022/12/10 11:34:12;;;;;;;106.35;38.47;;;;;;;2.35;76.26;97395.53;5049399;28;19912;-75
2022/12/10 11:37:05;;;;;;;102.40;38.90;;;;;;;2.35;76.63;97390.13;5049081;28;20028;-73
2022/12/10 11:40:05;;;;;;;112.72;43.63;;;;;;;2.37;76.02;97390.66;5048583;28;20037;-74
2022/12/10 11:42:48;;;;;;;122.50;49.25;;;;;;;2.39;75.81;97383.09;5049173;28;20032;-74
2022/12/10 11:45:31;;;;;;;128.80;51.85;;;;;;;2.42;76.73;97387.13;5050507;28;20670;-73
2022/12/10 11:48:06;;;;;;;68.78;29.27;;;;;;;2.41;76.55;97380.09;5050738;28;20033;-73
2022/12/10 11:50:45;;;;;;;72.75;31.45;;;;;;;2.43;75.68;97389.59;5048142;28;20060;-72